Time;durP1;ratioP1;P1;durP2;ratioP2;P2;SDS_P1;SDS_P2;PMS_P1;PMS_P2;Temp;Humidity;BMP_temperature;BMP_pressure;BME280_temperature;BME280_humidity;BME280_pressure;Samples;Min_cycle;Max_cycle;Signal;HPM_P1;HPM_P2
2022/07/09 00:01:05;;;;;;;14.83;10.00;;;19.20;5.40;;;;;;6155870;23;20175;-85
2022/07/09 00:03:32;;;;;;;15.00;8.87;;;19.10;1.00;;;;;;6134449;23;20205;-85
2022/07/09 00:05:59;;;;;;;15.17;9.70;;;19.10;99.90;;;;;;6156233;23;20168;-85
2022/07/09 00:08:25;;;;;;;14.03;9.27;;;19.10;1.00;;;;;;6133709;23;20179;-86
2022/07/09 00:10:52;;;;;;;10.80;9.17;;;19.10;96.70;;;;;;6131854;23;20171;-86
2022/07/09 00:13:19;;;;;;;14.60;9.07;;;19.00;99.90;;;;;;6132193;23;20172;-84
2022/07/09 00:15:46;;;;;;;15.17;9.63;;;19.00;1.00;;;;;;6130414;23;20216;-84
2022/07/09 00:18:13;;;;;;;11.80;8.17;;;19.00;1.00;;;;;;6206900;23;20183;-85
2022/07/09 00:20:41;;;;;;;11.93;8.67;;;19.00;99.90;;;;;;6152179;23;20274;-85
2022/07/09 00:23:08;;;;;;;11.40;8.33;;;18.90;1.00;;;;;;6157090;23;20229;-82
2022/07/09 00:25:35;;;;;;;10.13;8.60;;;18.80;99.90;;;;;;6156062;23;20786;-85
2022/07/09 00:28:02;;;;;;;9.50;7.57;;;18.80;1.00;;;;;;6182825;23;20170;-85
2022/07/09 00:30:29;;;;;;;9.67;8.43;;;18.80;1.00;;;;;;6154195;23;20168;-85
2022/07/09 00:32:55;;;;;;;11.27;8.27;;;18.60;1.00;;;;;;6129947;23;20433;-85
2022/07/09 00:35:22;;;;;;;9.77;8.60;;;18.60;1.00;;;;;;6133506;23;20647;-83
2022/07/09 00:37:49;;;;;;;10.27;8.70;;;18.60;1.00;;;;;;6157127;23;20199;-82
2022/07/09 00:40:16;;;;;;;9.80;8.80;;;18.50;1.00;;;;;;6130343;23;20535;-85
2022/07/09 00:42:43;;;;;;;10.47;8.40;;;18.40;1.00;;;;;;6156113;23;20546;-86
2022/07/09 00:45:10;;;;;;;14.53;9.70;;;18.30;5.20;;;;;;6157088;23;21028;-85
2022/07/09 00:47:37;;;;;;;13.07;8.70;;;18.20;1.00;;;;;;6162704;23;20174;-85
2022/07/09 00:50:05;;;;;;;10.53;9.50;;;18.10;99.90;;;;;;6135144;23;20222;-84
2022/07/09 00:52:34;;;;;;;9.47;8.47;;;18.00;99.90;;;;;;6132134;23;20206;-85
2022/07/09 00:55:03;;;;;;;11.27;8.83;;;17.80;99.90;;;;;;6183106;23;20647;-83
2022/07/09 00:57:31;;;;;;;10.63;9.13;;;17.60;99.90;;;;;;6157120;23;20206;-85
2022/07/09 00:59:59;;;;;;;10.27;8.80;;;17.40;99.90;;;;;;6158493;23;20249;-85
2022/07/09 01:02:26;;;;;;;12.30;9.60;;;17.40;99.90;;;;;;6181485;23;20194;-83
2022/07/09 01:04:53;;;;;;;11.17;9.87;;;17.40;99.90;;;;;;6157848;23;20171;-83
2022/07/09 01:07:20;;;;;;;10.53;9.20;;;17.30;99.90;;;;;;6128767;23;20407;-85
2022/07/09 01:09:47;;;;;;;11.50;9.63;;;17.40;99.90;;;;;;6134828;23;20168;-86
2022/07/09 01:12:14;;;;;;;12.97;11.10;;;17.30;99.90;;;;;;6157058;23;20174;-85
2022/07/09 01:14:41;;;;;;;12.90;10.20;;;17.20;99.90;;;;;;6160765;23;20174;-84
2022/07/09 01:17:08;;;;;;;11.97;10.50;;;17.20;99.90;;;;;;6184223;23;20232;-85
2022/07/09 01:19:36;;;;;;;12.67;11.03;;;17.00;99.90;;;;;;6186072;23;20182;-85
2022/07/09 01:22:04;;;;;;;12.53;10.80;;;17.10;99.90;;;;;;6211355;23;20197;-84
2022/07/09 01:24:33;;;;;;;13.80;11.13;;;16.90;99.90;;;;;;6164543;23;20619;-85
2022/07/09 01:27:01;;;;;;;17.33;11.67;;;17.00;99.90;;;;;;6186039;23;20510;-85
2022/07/09 01:29:28;;;;;;;13.43;11.27;;;17.00;99.90;;;;;;6163128;23;20562;-85
2022/07/09 01:31:55;;;;;;;14.17;11.60;;;17.00;99.90;;;;;;6184481;23;20243;-83
2022/07/09 01:34:22;;;;;;;16.83;12.00;;;17.10;99.90;;;;;;6158891;23;20191;-84
2022/07/09 01:36:49;;;;;;;15.50;11.17;;;17.10;99.90;;;;;;6182616;23;20226;-83
2022/07/09 01:39:16;;;;;;;17.30;11.57;;;17.10;99.90;;;;;;6157969;23;20176;-85
2022/07/09 01:41:43;;;;;;;18.00;11.80;;;17.00;99.90;;;;;;6157435;23;20163;-85
2022/07/09 01:44:10;;;;;;;15.77;11.63;;;16.90;99.90;;;;;;6182377;23;20200;-85
2022/07/09 01:46:37;;;;;;;16.80;12.03;;;17.00;99.90;;;;;;6182322;23;20229;-84
2022/07/09 01:49:04;;;;;;;13.23;11.77;;;17.00;99.90;;;;;;6159077;23;20255;-85
2022/07/09 01:51:34;;;;;;;16.17;12.13;;;17.10;99.90;;;;;;6158772;23;20250;-84
2022/07/09 01:54:02;;;;;;;15.13;11.93;;;17.20;99.90;;;;;;6158275;23;20276;-85
2022/07/09 01:56:29;;;;;;;12.97;11.37;;;17.20;99.90;;;;;;6182205;23;20164;-86
2022/07/09 01:58:56;;;;;;;15.70;11.57;;;17.10;99.90;;;;;;6159433;23;20199;-86
2022/07/09 02:01:23;;;;;;;15.67;11.43;;;17.10;99.90;;;;;;6158840;23;20254;-85
2022/07/09 02:03:50;;;;;;;19.23;12.30;;;17.10;99.90;;;;;;6158866;23;20183;-84
2022/07/09 02:06:17;;;;;;;14.10;12.20;;;16.90;99.90;;;;;;6158571;23;20648;-86
2022/07/09 02:08:44;;;;;;;13.70;11.47;;;17.00;99.90;;;;;;6185075;23;20158;-85
2022/07/09 02:11:11;;;;;;;15.17;12.00;;;16.90;99.90;;;;;;6159119;23;20568;-86
2022/07/09 02:13:38;;;;;;;14.37;12.43;;;17.00;99.90;;;;;;6158826;23;20172;-84
2022/07/09 02:16:05;;;;;;;12.90;10.77;;;17.10;99.90;;;;;;6183126;23;20172;-84
2022/07/09 02:18:32;;;;;;;12.23;11.03;;;17.00;99.90;;;;;;6159358;23;20187;-84
2022/07/09 02:20:59;;;;;;;13.97;10.97;;;17.00;99.90;;;;;;6156554;23;20196;-83
2022/07/09 02:23:26;;;;;;;14.83;11.47;;;17.00;99.90;;;;;;6152614;23;20156;-84
2022/07/09 02:25:53;;;;;;;12.10;10.40;;;17.00;99.90;;;;;;6201547;23;20176;-84
2022/07/09 02:28:20;;;;;;;13.17;10.80;;;17.00;99.90;;;;;;6152259;23;20156;-84
2022/07/09 02:30:47;;;;;;;11.87;10.57;;;16.90;99.90;;;;;;6179748;23;20612;-84
2022/07/09 02:33:14;;;;;;;14.53;10.27;;;16.70;99.90;;;;;;6157892;23;20651;-84
2022/07/09 02:35:42;;;;;;;12.23;9.93;;;16.90;99.90;;;;;;6156830;23;20167;-83
2022/07/09 02:38:12;;;;;;;12.50;10.47;;;16.70;99.90;;;;;;6134226;23;20448;-83
2022/07/09 02:40:39;;;;;;;12.60;9.60;;;16.80;99.90;;;;;;6152826;23;20200;-83
2022/07/09 02:43:05;;;;;;;13.10;9.73;;;16.90;99.90;;;;;;6130576;23;20225;-85
2022/07/09 02:45:32;;;;;;;14.93;9.53;;;16.90;99.90;;;;;;6158636;23;20203;-85
2022/07/09 02:47:59;;;;;;;13.50;9.83;;;16.90;99.90;;;;;;6185058;23;20164;-85
2022/07/09 02:50:26;;;;;;;11.10;9.97;;;16.90;99.90;;;;;;6157282;23;20165;-85
2022/07/09 02:52:53;;;;;;;11.40;10.30;;;16.90;99.90;;;;;;6157409;23;20244;-84
2022/07/09 02:55:20;;;;;;;14.00;10.00;;;17.00;99.90;;;;;;6182811;23;20219;-84
2022/07/09 02:57:47;;;;;;;12.03;10.50;;;17.00;99.90;;;;;;6181192;23;20161;-85
2022/07/09 03:00:14;;;;;;;14.17;10.67;;;16.90;99.90;;;;;;6183395;23;20196;-83
2022/07/09 03:02:41;;;;;;;11.07;9.90;;;16.90;99.90;;;;;;6158082;23;20644;-83
2022/07/09 03:05:08;;;;;;;12.87;10.17;;;17.00;99.90;;;;;;6157804;23;20185;-83
2022/07/09 03:07:35;;;;;;;15.67;11.33;;;16.90;99.90;;;;;;6181361;23;20200;-83
2022/07/09 03:10:02;;;;;;;15.93;11.20;;;16.80;99.90;;;;;;6156058;23;20179;-84
2022/07/09 03:12:29;;;;;;;12.57;10.33;;;16.80;99.90;;;;;;6156382;23;20685;-83
2022/07/09 03:14:56;;;;;;;14.47;11.80;;;16.90;99.90;;;;;;6157931;23;20168;-83
2022/07/09 03:17:23;;;;;;;15.67;12.07;;;16.90;99.90;;;;;;6185105;23;20170;-83
2022/07/09 03:19:50;;;;;;;19.10;13.10;;;16.80;99.90;;;;;;6157963;23;20186;-83
2022/07/09 03:22:17;;;;;;;13.77;11.83;;;16.80;99.90;;;;;;6157436;23;20544;-83
2022/07/09 03:24:44;;;;;;;16.10;12.03;;;16.90;99.90;;;;;;6157215;23;20159;-83
2022/07/09 03:27:11;;;;;;;13.53;11.80;;;16.90;99.90;;;;;;6155836;23;20164;-82
2022/07/09 03:29:37;;;;;;;16.60;11.50;;;16.90;99.90;;;;;;6158310;23;20247;-83
2022/07/09 03:32:05;;;;;;;13.60;11.93;;;16.90;99.90;;;;;;6181914;23;20196;-82
2022/07/09 03:34:32;;;;;;;15.13;12.30;;;16.90;99.90;;;;;;6182586;23;20172;-82
2022/07/09 03:36:59;;;;;;;18.20;12.97;;;16.90;99.90;;;;;;6156551;23;20201;-83
2022/07/09 03:39:26;;;;;;;18.33;13.67;;;16.80;99.90;;;;;;6155638;23;20191;-82
2022/07/09 03:41:53;;;;;;;17.20;13.37;;;16.70;99.90;;;;;;6156399;23;20217;-83
2022/07/09 03:44:20;;;;;;;18.57;13.67;;;16.50;99.90;;;;;;6155501;23;20204;-82
2022/07/09 03:46:46;;;;;;;16.67;13.70;;;16.50;99.90;;;;;;6157525;23;20175;-82
2022/07/09 03:49:13;;;;;;;19.90;14.00;;;16.50;99.90;;;;;;6157514;23;20301;-82
2022/07/09 03:51:40;;;;;;;18.07;14.20;;;16.60;99.90;;;;;;6156993;23;20164;-84
2022/07/09 03:54:27;;;;;;;18.53;13.60;;;16.60;99.90;;;;;;6166325;23;20170;-83
2022/07/09 03:56:54;;;;;;;17.70;14.07;;;16.70;99.90;;;;;;6157900;23;20232;-84
2022/07/09 03:59:21;;;;;;;19.10;14.83;;;16.60;99.90;;;;;;6158157;23;20180;-83
2022/07/09 04:01:47;;;;;;;21.93;14.93;;;16.60;99.90;;;;;;6156721;23;20552;-83
2022/07/09 04:04:14;;;;;;;20.73;15.67;;;16.60;99.90;;;;;;6158783;23;20168;-83
2022/07/09 04:06:41;;;;;;;17.50;14.73;;;16.50;99.90;;;;;;6157054;23;20535;-83
2022/07/09 04:09:08;;;;;;;19.43;15.83;;;16.50;99.90;;;;;;6160070;23;20519;-83
2022/07/09 04:11:35;;;;;;;22.13;16.17;;;16.40;99.90;;;;;;6184655;23;20168;-82
2022/07/09 04:14:02;;;;;;;20.90;16.80;;;16.20;99.90;;;;;;6157030;23;20600;-83
2022/07/09 04:16:29;;;;;;;19.20;14.80;;;16.20;99.90;;;;;;6159805;23;20165;-83
2022/07/09 04:18:56;;;;;;;20.13;16.00;;;16.40;99.90;;;;;;6184136;23;20291;-83
2022/07/09 04:21:23;;;;;;;20.33;15.63;;;16.50;99.90;;;;;;6157368;23;20645;-82
2022/07/09 04:23:50;;;;;;;18.30;15.97;;;16.40;99.90;;;;;;6182771;23;20169;-82
2022/07/09 04:26:20;;;;;;;21.90;16.07;;;16.50;99.90;;;;;;6183202;23;20168;-83
2022/07/09 04:28:47;;;;;;;18.00;15.47;;;16.50;99.90;;;;;;6160361;23;20667;-82
2022/07/09 04:31:15;;;;;;;21.63;15.93;;;16.40;99.90;;;;;;6158009;23;20476;-83
2022/07/09 04:33:43;;;;;;;20.97;15.43;;;16.30;99.90;;;;;;6158631;23;20164;-83
2022/07/09 04:36:10;;;;;;;21.97;16.80;;;16.50;99.90;;;;;;6157720;23;20651;-83
2022/07/09 04:38:37;;;;;;;22.60;17.33;;;16.40;99.90;;;;;;6160060;23;20168;-82
2022/07/09 04:41:05;;;;;;;22.30;17.20;;;16.30;99.90;;;;;;6182528;23;20224;-82
2022/07/09 04:43:32;;;;;;;22.80;17.17;;;16.40;99.90;;;;;;6181546;23;20175;-82
2022/07/09 04:45:59;;;;;;;23.37;17.90;;;16.50;99.90;;;;;;6130748;23;20782;-83
2022/07/09 04:48:26;;;;;;;27.00;19.70;;;16.40;99.90;;;;;;6132378;23;20161;-83
2022/07/09 04:50:53;;;;;;;25.83;19.67;;;16.50;99.90;;;;;;6107270;23;20166;-83
2022/07/09 04:53:20;;;;;;;22.67;18.67;;;16.70;99.90;;;;;;6131051;23;20219;-83
2022/07/09 04:55:47;;;;;;;23.47;17.20;;;16.80;99.90;;;;;;6104393;23;20169;-83
2022/07/09 04:58:14;;;;;;;28.63;18.23;;;16.80;99.90;;;;;;6155954;23;20201;-83
2022/07/09 05:00:41;;;;;;;23.83;18.17;;;17.00;99.90;;;;;;6132276;23;20191;-83
2022/07/09 05:03:09;;;;;;;19.93;16.83;;;17.20;99.90;;;;;;6131230;23;20600;-83
2022/07/09 05:05:35;;;;;;;22.33;18.03;;;17.20;99.90;;;;;;6107976;23;20550;-83
2022/07/09 05:08:14;;;;;;;24.97;18.20;;;17.00;99.90;;;;;;6137884;23;20168;-83
2022/07/09 05:10:40;;;;;;;23.70;17.60;;;17.20;99.90;;;;;;6131665;23;20640;-83
2022/07/09 05:13:08;;;;;;;22.27;18.80;;;17.30;99.90;;;;;;6107505;23;20180;-83
2022/07/09 05:15:35;;;;;;;21.90;17.20;;;17.30;99.90;;;;;;6109250;23;20175;-83
2022/07/09 05:18:01;;;;;;;23.23;17.77;;;17.10;99.90;;;;;;6133018;23;20200;-82
2022/07/09 05:20:29;;;;;;;24.80;19.90;;;17.20;99.90;;;;;;6132013;23;20193;-82
2022/07/09 05:22:55;;;;;;;26.10;19.43;;;17.10;99.90;;;;;;6133110;23;20161;-82
2022/07/09 05:25:22;;;;;;;24.27;19.83;;;17.20;99.90;;;;;;6132994;23;20212;-82
2022/07/09 05:27:49;;;;;;;24.03;19.10;;;17.10;99.90;;;;;;6157927;23;20161;-80
2022/07/09 05:30:17;;;;;;;25.27;19.70;;;17.00;99.90;;;;;;6135169;23;20284;-82
2022/07/09 05:32:46;;;;;;;27.10;19.53;;;17.10;99.90;;;;;;6111254;23;20640;-83
2022/07/09 05:35:13;;;;;;;25.57;19.07;;;17.00;99.90;;;;;;6108880;23;20211;-83
2022/07/09 05:37:41;;;;;;;25.30;20.33;;;17.10;99.90;;;;;;6109139;23;20161;-83
2022/07/09 05:40:09;;;;;;;26.20;19.70;;;17.10;99.90;;;;;;6183778;23;20205;-82
2022/07/09 05:42:36;;;;;;;25.97;19.23;;;17.10;99.90;;;;;;6130226;23;20172;-82
2022/07/09 05:45:04;;;;;;;28.27;18.57;;;17.20;99.90;;;;;;6150776;23;20261;-83
2022/07/09 05:47:31;;;;;;;27.17;18.70;;;17.20;99.90;;;;;;6136146;23;20578;-83
2022/07/09 05:49:58;;;;;;;27.47;19.87;;;17.30;99.90;;;;;;6134547;23;20172;-82
2022/07/09 05:52:25;;;;;;;26.87;19.57;;;17.40;99.90;;;;;;6134945;23;20619;-82
2022/07/09 05:54:52;;;;;;;27.70;17.90;;;17.50;99.90;;;;;;6159459;23;20172;-83
2022/07/09 05:57:19;;;;;;;27.90;20.00;;;17.70;99.90;;;;;;6181829;23;20176;-82
2022/07/09 05:59:46;;;;;;;26.43;19.97;;;17.80;99.90;;;;;;6159682;23;20286;-82
2022/07/09 06:02:13;;;;;;;27.73;20.90;;;17.80;99.90;;;;;;6131889;23;20242;-81
2022/07/09 06:04:40;;;;;;;25.17;20.87;;;17.70;99.90;;;;;;6159470;23;20164;-83
2022/07/09 06:07:07;;;;;;;30.57;20.60;;;17.70;99.90;;;;;;6184215;23;20171;-82
2022/07/09 06:09:34;;;;;;;27.53;21.53;;;17.80;99.90;;;;;;6136137;23;20165;-82
2022/07/09 06:12:00;;;;;;;28.90;21.13;;;18.00;99.90;;;;;;6135400;23;20163;-81
2022/07/09 06:14:27;;;;;;;29.73;21.37;;;18.00;99.90;;;;;;6187065;23;20166;-82
2022/07/09 06:16:55;;;;;;;25.73;20.80;;;18.00;99.90;;;;;;6137404;23;20228;-83
2022/07/09 06:19:23;;;;;;;27.80;20.37;;;18.00;99.90;;;;;;6185206;23;20197;-85
2022/07/09 06:21:50;;;;;;;26.97;20.23;;;17.90;99.90;;;;;;6160309;23;20644;-87
2022/07/09 06:24:17;;;;;;;27.03;21.10;;;18.10;99.90;;;;;;6158071;23;20194;-81
2022/07/09 06:26:46;;;;;;;28.10;22.03;;;18.20;99.90;;;;;;6155486;23;20497;-82
2022/07/09 06:29:13;;;;;;;25.80;19.30;;;18.20;99.90;;;;;;6157654;23;20173;-82
2022/07/09 06:31:40;;;;;;;24.97;19.97;;;18.30;99.90;;;;;;6131151;23;20499;-82
2022/07/09 06:34:07;;;;;;;28.87;20.40;;;18.30;99.90;;;;;;6159887;23;20173;-83
2022/07/09 06:36:35;;;;;;;29.20;19.07;;;18.30;99.90;;;;;;6156935;23;20163;-82
2022/07/09 06:41:48;;;;;;;28.27;19.20;;;18.50;99.90;;;;;;6186427;23;20604;-82
2022/07/09 06:44:15;;;;;;;24.23;19.10;;;18.50;99.90;;;;;;6157671;23;20222;-83
2022/07/09 06:46:51;;;;;;;27.47;18.97;;;18.70;99.90;;;;;;6183946;23;20788;-82
2022/07/09 06:49:18;;;;;;;24.70;17.60;;;19.10;99.90;;;;;;6178674;23;20283;-82
2022/07/09 06:51:45;;;;;;;20.80;15.47;;;19.50;99.90;;;;;;6160003;23;20162;-83
2022/07/09 06:54:12;;;;;;;19.40;15.20;;;19.70;99.90;;;;;;6160424;23;20166;-82
2022/07/09 06:56:38;;;;;;;17.23;13.90;;;19.90;99.90;;;;;;6159522;23;20536;-82
2022/07/09 06:59:05;;;;;;;17.40;13.90;;;19.70;99.90;;;;;;6161594;23;20217;-82
2022/07/09 07:01:32;;;;;;;17.90;12.90;;;19.60;99.90;;;;;;6160832;23;20288;-82
2022/07/09 07:03:59;;;;;;;15.47;11.87;;;19.70;99.90;;;;;;6185887;23;20155;-82
2022/07/09 07:06:26;;;;;;;17.50;12.87;;;19.90;99.90;;;;;;6160850;23;20160;-82
2022/07/09 07:08:53;;;;;;;19.63;13.23;;;20.00;99.90;;;;;;6160085;23;20167;-82
2022/07/09 07:11:20;;;;;;;15.80;13.00;;;20.30;99.90;;;;;;6158576;23;20225;-82
2022/07/09 07:13:46;;;;;;;16.00;12.10;;;20.50;99.90;;;;;;6159073;23;20247;-82
2022/07/09 07:16:14;;;;;;;19.57;13.80;;;20.70;99.90;;;;;;6161633;23;20634;-82
2022/07/09 07:18:40;;;;;;;17.73;12.97;;;20.40;99.90;;;;;;6161581;23;20191;-81
2022/07/09 07:21:07;;;;;;;16.73;12.57;;;20.20;99.90;;;;;;6185554;23;20190;-82
2022/07/09 07:23:34;;;;;;;19.53;14.10;;;20.30;99.90;;;;;;6211298;23;20646;-82
2022/07/09 07:26:01;;;;;;;20.77;14.67;;;20.20;99.90;;;;;;6158446;23;20177;-82
2022/07/09 07:28:28;;;;;;;14.97;12.87;;;20.30;99.90;;;;;;6184955;23;20553;-82
2022/07/09 07:30:55;;;;;;;19.77;14.40;;;20.40;99.90;;;;;;6160932;23;20167;-82
2022/07/09 07:33:22;;;;;;;14.50;12.93;;;20.30;99.90;;;;;;6161331;23;20233;-82
2022/07/09 07:35:48;;;;;;;15.47;11.90;;;20.10;99.90;;;;;;6160133;23;20533;-82
2022/07/09 07:38:15;;;;;;;14.03;10.53;;;20.20;99.90;;;;;;6160759;23;20172;-82
2022/07/09 07:40:42;;;;;;;12.17;10.17;;;20.20;99.90;;;;;;6181711;23;20257;-82
2022/07/09 07:43:13;;;;;;;13.23;10.67;;;20.40;99.90;;;;;;6154640;23;20167;-82
2022/07/09 07:45:40;;;;;;;15.50;13.30;;;20.50;99.90;;;;;;6186316;23;20679;-82
2022/07/09 07:48:08;;;;;;;19.17;12.97;;;20.50;99.90;;;;;;6130806;23;20156;-82
2022/07/09 07:50:38;;;;;;;14.03;11.37;;;20.30;99.90;;;;;;6129133;23;20176;-81
2022/07/09 07:53:06;;;;;;;12.97;11.10;;;20.30;99.90;;;;;;6151382;23;20592;-82
2022/07/09 07:55:33;;;;;;;14.20;11.73;;;20.60;99.90;;;;;;6153943;23;20253;-82
2022/07/09 07:58:00;;;;;;;15.50;11.47;;;20.50;99.90;;;;;;6153007;23;20518;-82
2022/07/09 08:00:27;;;;;;;16.23;11.87;;;20.50;99.90;;;;;;6153276;23;20507;-83
2022/07/09 08:02:54;;;;;;;13.87;10.57;;;20.60;99.90;;;;;;6128284;23;20190;-81
2022/07/09 08:05:21;;;;;;;14.53;12.97;;;20.50;99.90;;;;;;6126694;23;20662;-83
2022/07/09 08:07:49;;;;;;;12.20;10.93;;;20.60;99.90;;;;;;6128204;23;20645;-82
2022/07/09 08:10:15;;;;;;;12.53;11.23;;;20.80;99.90;;;;;;6106227;23;20243;-79
2022/07/09 08:12:42;;;;;;;17.47;12.47;;;21.00;99.90;;;;;;6104875;23;20507;-79
2022/07/09 08:15:09;;;;;;;15.33;11.37;;;21.00;99.90;;;;;;6106242;23;20168;-79
2022/07/09 08:17:36;;;;;;;16.93;12.00;;;21.30;99.90;;;;;;6130488;23;20168;-79
2022/07/09 08:20:04;;;;;;;16.47;10.67;;;21.10;99.90;;;;;;6106371;23;20275;-77
2022/07/09 08:22:31;;;;;;;12.10;10.90;;;21.20;99.90;;;;;;6105938;23;20170;-78
2022/07/09 08:24:58;;;;;;;13.57;11.00;;;21.10;99.90;;;;;;6129578;23;20160;-78
2022/07/09 08:27:25;;;;;;;10.97;9.70;;;21.50;99.90;;;;;;6104448;23;20219;-78
2022/07/09 08:29:52;;;;;;;12.23;9.83;;;21.70;99.90;;;;;;6153794;23;20168;-78
2022/07/09 08:32:19;;;;;;;14.80;11.73;;;21.90;99.90;;;;;;6128722;23;20167;-78
2022/07/09 08:34:46;;;;;;;15.67;12.57;;;21.40;99.90;;;;;;6127201;23;20695;-80
2022/07/09 08:37:13;;;;;;;15.23;10.43;;;21.20;99.90;;;;;;6126919;23;20173;-79
2022/07/09 08:39:40;;;;;;;12.10;10.00;;;21.30;99.90;;;;;;6128086;23;20575;-80
2022/07/09 08:42:10;;;;;;;13.80;10.00;;;21.30;99.90;;;;;;6126816;23;20487;-78
2022/07/09 08:44:42;;;;;;;12.03;10.67;;;21.20;99.90;;;;;;6132138;23;20203;-78
2022/07/09 08:47:11;;;;;;;14.43;11.90;;;21.30;99.90;;;;;;6152749;23;20169;-79
2022/07/09 08:49:39;;;;;;;14.80;12.67;;;21.10;99.90;;;;;;6145667;23;20487;-79
2022/07/09 08:52:06;;;;;;;14.93;12.50;;;21.10;99.90;;;;;;6143165;23;20165;-80
2022/07/09 08:54:36;;;;;;;16.70;13.60;;;21.00;99.90;;;;;;6139576;23;20192;-82
2022/07/09 08:57:05;;;;;;;13.47;12.00;;;20.90;99.90;;;;;;6146314;23;20589;-80
2022/07/09 08:59:33;;;;;;;14.20;11.13;;;21.00;99.90;;;;;;6152928;23;20235;-79
2022/07/09 09:02:08;;;;;;;13.97;10.47;;;20.90;99.90;;;;;;6152209;23;20656;-78
2022/07/09 09:04:35;;;;;;;11.33;9.90;;;20.90;99.90;;;;;;6153240;23;20191;-78
2022/07/09 09:07:13;;;;;;;10.70;9.53;;;21.20;99.90;;;;;;6153283;23;20605;-78
2022/07/09 09:09:40;;;;;;;14.43;10.10;;;21.40;99.90;;;;;;6153883;23;20239;-78
2022/07/09 09:12:07;;;;;;;11.93;10.73;;;21.40;99.90;;;;;;6152501;23;20177;-79
2022/07/09 09:14:34;;;;;;;15.00;11.17;;;21.30;99.90;;;;;;6176644;23;20165;-78
2022/07/09 09:17:14;;;;;;;13.97;10.93;;;21.40;99.90;;;;;;6154089;23;20231;-78
2022/07/09 09:19:41;;;;;;;15.03;11.13;;;21.30;99.90;;;;;;6152695;23;20207;-78
2022/07/09 09:22:11;;;;;;;12.93;11.60;;;21.30;99.90;;;;;;6151371;23;20177;-79
2022/07/09 09:24:38;;;;;;;13.47;11.30;;;21.20;99.90;;;;;;6154158;23;20157;-77
2022/07/09 09:27:05;;;;;;;12.17;10.97;;;21.10;99.90;;;;;;6150986;23;20169;-78
2022/07/09 09:29:33;;;;;;;14.07;10.13;;;21.10;99.90;;;;;;6177731;23;20219;-82
2022/07/09 09:32:10;;;;;;;10.17;8.87;;;21.10;99.90;;;;;;6152996;23;20487;-78
2022/07/09 09:34:37;;;;;;;10.77;9.43;;;20.80;99.90;;;;;;6155204;23;20454;-78
2022/07/09 09:37:04;;;;;;;10.80;9.70;;;20.80;99.90;;;;;;6178169;23;20164;-80
2022/07/09 09:39:31;;;;;;;14.47;10.03;;;20.70;99.90;;;;;;6178511;23;20183;-80
2022/07/09 09:42:00;;;;;;;11.00;9.30;;;20.80;99.90;;;;;;6153177;23;20177;-81
2022/07/09 09:44:37;;;;;;;12.73;10.03;;;20.90;99.90;;;;;;6184437;23;20811;-81
2022/07/09 09:47:07;;;;;;;11.13;9.63;;;21.00;99.90;;;;;;6160989;23;20528;-80
2022/07/09 09:49:42;;;;;;;10.80;9.20;;;20.90;99.90;;;;;;6160129;23;20182;-80
2022/07/09 09:52:10;;;;;;;10.40;8.87;;;20.90;99.90;;;;;;6183358;23;20167;-82
2022/07/09 09:54:39;;;;;;;10.97;7.97;;;21.00;99.90;;;;;;6181886;23;20161;-77
2022/07/09 09:57:13;;;;;;;9.37;6.30;;;20.90;99.90;;;;;;6184510;23;20168;-78
2022/07/09 09:59:41;;;;;;;5.90;5.30;;;20.80;99.90;;;;;;6184561;23;20172;-77
2022/07/09 10:02:10;;;;;;;7.60;4.93;;;20.70;99.90;;;;;;6160595;23;20587;-77
2022/07/09 10:04:38;;;;;;;6.00;5.45;;;20.90;99.90;;;;;;6158074;23;20397;-76
2022/07/09 10:07:08;;;;;;;6.13;4.07;;;20.70;99.90;;;;;;6159081;23;20222;-77
2022/07/09 10:09:35;;;;;;;4.37;3.80;;;20.90;99.90;;;;;;6185258;23;20160;-77
2022/07/09 10:12:02;;;;;;;4.50;3.47;;;21.00;99.90;;;;;;6210582;23;20176;-77
2022/07/09 10:14:31;;;;;;;6.17;4.40;;;21.00;99.90;;;;;;6160691;23;20168;-75
2022/07/09 10:17:14;;;;;;;4.63;3.30;;;21.30;99.90;;;;;;6184507;23;20168;-77
2022/07/09 10:19:58;;;;;;;3.93;3.27;;;21.60;1.00;;;;;;6211774;23;20168;-77
2022/07/09 10:22:42;;;;;;;6.87;4.13;;;22.30;99.90;;;;;;6183701;23;20184;-79
2022/07/09 10:25:10;;;;;;;4.40;4.00;;;22.60;99.90;;;;;;6210344;23;20171;-77
2022/07/09 10:27:44;;;;;;;5.67;3.30;;;22.90;1.00;;;;;;6183128;23;20546;-77
2022/07/09 10:30:27;;;;;;;7.47;3.87;;;22.80;1.00;;;;;;6185173;23;20187;-77
2022/07/09 10:33:21;;;;;;;5.60;2.57;;;23.00;1.00;;;;;;6181878;23;20173;-77
2022/07/09 10:35:52;;;;;;;4.60;2.43;;;23.20;99.90;;;;;;6210870;23;20214;-77
2022/07/09 10:38:22;;;;;;;3.00;2.10;;;23.40;1.00;;;;;;6159703;23;20167;-77
2022/07/09 10:40:58;;;;;;;2.17;1.97;;;23.30;1.00;;;;;;6182858;23;20202;-77
2022/07/09 10:43:43;;;;;;;2.60;2.40;;;23.40;20.20;;;;;;6210276;23;20488;-77
2022/07/09 10:46:12;;;;;;;3.03;1.97;;;23.30;99.90;;;;;;6158405;23;20251;-77
2022/07/09 10:48:39;;;;;;;4.07;1.70;;;23.20;1.00;;;;;;6158252;23;20190;-78
2022/07/09 10:51:06;;;;;;;3.20;1.67;;;23.00;99.90;;;;;;6180350;23;20226;-77
2022/07/09 10:53:33;;;;;;;3.30;1.53;;;22.90;1.00;;;;;;6158439;23;20199;-78
2022/07/09 10:56:00;;;;;;;1.97;1.20;;;22.80;1.00;;;;;;6158176;23;20226;-77
2022/07/09 10:58:28;;;;;;;4.73;2.60;;;22.80;99.90;;;;;;6182390;23;20168;-77
2022/07/09 11:01:03;;;;;;;1.63;1.40;;;23.30;1.00;;;;;;6137357;22;20671;-77
2022/07/09 11:03:31;;;;;;;3.73;1.43;;;23.00;99.90;;;;;;6207518;23;20542;-77
2022/07/09 11:05:58;;;;;;;2.67;1.40;;;22.80;1.00;;;;;;6157882;23;20165;-77
2022/07/09 11:08:26;;;;;;;3.13;1.40;;;22.50;1.00;;;;;;6182944;23;20183;-77
2022/07/09 11:10:53;;;;;;;1.87;1.20;;;22.90;99.90;;;;;;6179685;23;20170;-77
2022/07/09 11:13:24;;;;;;;2.97;1.33;;;23.10;1.00;;;;;;6156337;23;20167;-78
2022/07/09 11:16:01;;;;;;;1.53;1.20;;;22.60;99.90;;;;;;6181512;23;20206;-77
2022/07/09 11:18:29;;;;;;;2.23;1.27;;;22.40;99.90;;;;;;6209237;23;20172;-78
2022/07/09 11:20:56;;;;;;;2.77;1.00;;;22.70;99.90;;;;;;6155574;23;20510;-78
2022/07/09 11:23:23;;;;;;;3.50;1.20;;;23.00;1.00;;;;;;6182067;23;20606;-78
2022/07/09 11:25:50;;;;;;;4.57;1.67;;;23.00;1.00;;;;;;6155707;23;20524;-79
2022/07/09 11:28:25;;;;;;;1.93;1.67;;;22.70;1.00;;;;;;6131844;23;20481;-78
2022/07/09 11:31:03;;;;;;;1.10;0.90;;;22.70;1.00;;;;;;6157943;23;20599;-78
2022/07/09 11:36:18;;;;;;;6.73;1.20;;;23.50;99.90;;;;;;6186175;23;20166;-78
2022/07/09 11:38:52;;;;;;;2.40;1.07;;;23.20;99.90;;;;;;6135247;23;20251;-77
2022/07/09 11:41:20;;;;;;;3.53;1.20;;;23.70;99.90;;;;;;6208600;23;20539;-77
2022/07/09 11:43:51;;;;;;;2.50;0.90;;;23.70;99.90;;;;;;6159363;23;20478;-78
2022/07/09 11:46:19;;;;;;;1.03;0.97;;;23.90;27.30;;;;;;6127952;23;20236;-77
2022/07/09 11:48:54;;;;;;;1.63;0.80;;;23.30;99.90;;;;;;6153857;23;20608;-77
2022/07/09 11:51:34;;;;;;;2.70;1.00;;;23.30;1.00;;;;;;6152993;23;20279;-77
2022/07/09 11:54:01;;;;;;;1.57;0.90;;;23.30;1.00;;;;;;6152143;23;20180;-78
2022/07/09 11:56:45;;;;;;;0.90;0.83;;;23.30;99.90;;;;;;6151149;23;20195;-77
2022/07/09 11:59:12;;;;;;;0.93;0.77;;;23.80;1.00;;;;;;6152973;23;20161;-77
2022/07/09 12:01:39;;;;;;;0.90;0.80;;;24.40;1.00;;;;;;6154598;23;20223;-78
2022/07/09 12:04:06;;;;;;;1.10;0.77;;;23.80;1.00;;;;;;6151334;23;20287;-78
2022/07/09 12:06:33;;;;;;;1.07;0.77;;;24.20;1.00;;;;;;6151951;23;20180;-77
2022/07/09 12:09:01;;;;;;;2.13;0.80;;;24.10;1.00;;;;;;6152574;23;20590;-77
2022/07/09 12:11:30;;;;;;;1.00;0.60;;;24.70;1.00;;;;;;6152317;23;20176;-77
2022/07/09 12:13:57;;;;;;;1.60;0.83;;;24.80;99.90;;;;;;6151588;23;20500;-77
2022/07/09 12:16:24;;;;;;;0.67;0.53;;;24.90;99.90;;;;;;6151700;23;20172;-77
2022/07/09 12:18:51;;;;;;;0.93;0.50;;;25.20;99.90;;;;;;6178267;23;20599;-78
2022/07/09 12:21:19;;;;;;;2.70;0.97;;;25.40;99.90;;;;;;6149884;23;20224;-78
2022/07/09 12:23:45;;;;;;;14.67;14.00;;;25.00;99.90;;;;;;6150076;23;20176;-78
2022/07/09 12:26:13;;;;;;;1.60;0.90;;;25.30;99.90;;;;;;6150222;23;20166;-79
2022/07/09 12:28:40;;;;;;;1.83;0.80;;;25.70;99.90;;;;;;6149507;23;20476;-77
2022/07/09 12:31:07;;;;;;;1.47;0.70;;;25.60;99.90;;;;;;6178967;23;20260;-77
2022/07/09 12:33:34;;;;;;;0.57;0.57;;;25.00;99.70;;;;;;6176808;23;20855;-77
2022/07/09 12:36:02;;;;;;;0.40;0.40;;;25.00;36.80;;;;;;6176450;23;20180;-76
2022/07/09 12:38:29;;;;;;;0.97;0.77;;;25.40;1.00;;;;;;6177081;23;20177;-77
2022/07/09 12:40:56;;;;;;;0.57;0.57;;;25.30;1.00;;;;;;6177385;23;20197;-76
2022/07/09 12:43:23;;;;;;;1.33;0.70;;;26.20;1.00;;;;;;6176467;23;20619;-76